Alvin, Wisconsin
Current Conditions -  °F | °C
As of 1:50 PM on Sunday 25 Jan 2015 (Local Time) from KEGV Reporting Station
Clear Clear  
Wind Chill: 18°   Ceiling: Unl
Heat Index: 18°   Visibility: 10mi
Dew Point:   Wind: 0mph
Humidity: 55%   Direction: NA
Pressure: 29.97"   Gusts: NA
Location:  45.9186°N, 88.7601°W
Report Text: KEGV 251950Z AUTO 00000KT 10SM CLR M08/M16 A2997 RMK AO2 T10801156
Loading
Personal Weather Stations






























Interactive Weather Map New forecast layout! Learn more

10-Day Weather Forecast

Advertisements
Track Severe Weather on mobile